sensor_id;sensor_type;location;lat;lon;timestamp;P1;durP1;ratioP1;P2;durP2;ratioP2
78148;SDS011;67396;42.664;23.382;2023-11-21T00:00:15;9.23;;;5.03;;
78148;SDS011;67396;42.664;23.382;2023-11-21T00:02:41;9.48;;;5.05;;
78148;SDS011;67396;42.664;23.382;2023-11-21T00:05:08;12.40;;;6.18;;
78148;SDS011;67396;42.664;23.382;2023-11-21T00:07:35;16.75;;;7.90;;
78148;SDS011;67396;42.664;23.382;2023-11-21T00:10:01;13.90;;;6.55;;
78148;SDS011;67396;42.664;23.382;2023-11-21T00:12:28;12.32;;;6.15;;
78148;SDS011;67396;42.664;23.382;2023-11-21T00:14:54;11.65;;;6.30;;
78148;SDS011;67396;42.664;23.382;2023-11-21T00:17:20;13.50;;;6.05;;
78148;SDS011;67396;42.664;23.382;2023-11-21T00:19:45;14.00;;;6.30;;
78148;SDS011;67396;42.664;23.382;2023-11-21T00:22:11;11.77;;;6.03;;
78148;SDS011;67396;42.664;23.382;2023-11-21T00:24:36;16.02;;;6.68;;
78148;SDS011;67396;42.664;23.382;2023-11-21T00:27:02;13.02;;;6.15;;
78148;SDS011;67396;42.664;23.382;2023-11-21T00:29:27;13.98;;;6.93;;
78148;SDS011;67396;42.664;23.382;2023-11-21T00:31:53;10.38;;;5.50;;
78148;SDS011;67396;42.664;23.382;2023-11-21T00:34:18;9.10;;;5.70;;
78148;SDS011;67396;42.664;23.382;2023-11-21T00:36:44;9.63;;;5.68;;
78148;SDS011;67396;42.664;23.382;2023-11-21T00:39:10;10.65;;;5.82;;
78148;SDS011;67396;42.664;23.382;2023-11-21T00:41:36;12.68;;;6.00;;
78148;SDS011;67396;42.664;23.382;2023-11-21T00:44:02;10.60;;;6.32;;
78148;SDS011;67396;42.664;23.382;2023-11-21T00:46:28;10.10;;;5.55;;
78148;SDS011;67396;42.664;23.382;2023-11-21T00:48:54;12.90;;;6.53;;
78148;SDS011;67396;42.664;23.382;2023-11-21T00:51:20;11.95;;;6.85;;
78148;SDS011;67396;42.664;23.382;2023-11-21T00:53:47;16.42;;;7.47;;
78148;SDS011;67396;42.664;23.382;2023-11-21T00:56:13;16.60;;;9.13;;
78148;SDS011;67396;42.664;23.382;2023-11-21T00:58:39;14.52;;;8.40;;
78148;SDS011;67396;42.664;23.382;2023-11-21T01:01:08;12.68;;;7.35;;
78148;SDS011;67396;42.664;23.382;2023-11-21T01:03:34;15.98;;;8.50;;
78148;SDS011;67396;42.664;23.382;2023-11-21T01:05:59;27.60;;;12.63;;
78148;SDS011;67396;42.664;23.382;2023-11-21T01:08:25;19.08;;;10.35;;
78148;SDS011;67396;42.664;23.382;2023-11-21T01:10:50;18.63;;;11.50;;
78148;SDS011;67396;42.664;23.382;2023-11-21T01:13:16;20.05;;;10.50;;
78148;SDS011;67396;42.664;23.382;2023-11-21T01:15:41;20.50;;;11.38;;
78148;SDS011;67396;42.664;23.382;2023-11-21T01:18:07;23.42;;;13.15;;
78148;SDS011;67396;42.664;23.382;2023-11-21T01:20:33;22.40;;;12.82;;
78148;SDS011;67396;42.664;23.382;2023-11-21T01:22:59;30.02;;;16.17;;
78148;SDS011;67396;42.664;23.382;2023-11-21T01:25:24;32.40;;;16.92;;
78148;SDS011;67396;42.664;23.382;2023-11-21T01:27:51;30.23;;;15.80;;
78148;SDS011;67396;42.664;23.382;2023-11-21T01:30:16;33.53;;;16.77;;
78148;SDS011;67396;42.664;23.382;2023-11-21T01:32:43;32.33;;;17.10;;
78148;SDS011;67396;42.664;23.382;2023-11-21T01:35:08;36.20;;;19.33;;
78148;SDS011;67396;42.664;23.382;2023-11-21T01:37:35;43.97;;;22.98;;
78148;SDS011;67396;42.664;23.382;2023-11-21T01:40:01;50.85;;;26.50;;
78148;SDS011;67396;42.664;23.382;2023-11-21T01:42:27;56.47;;;26.25;;
78148;SDS011;67396;42.664;23.382;2023-11-21T01:44:54;57.28;;;27.38;;
78148;SDS011;67396;42.664;23.382;2023-11-21T01:47:20;62.72;;;32.70;;
78148;SDS011;67396;42.664;23.382;2023-11-21T01:49:46;62.78;;;30.67;;
78148;SDS011;67396;42.664;23.382;2023-11-21T01:52:12;62.80;;;28.30;;
78148;SDS011;67396;42.664;23.382;2023-11-21T01:54:38;56.97;;;27.83;;
78148;SDS011;67396;42.664;23.382;2023-11-21T01:57:04;63.28;;;29.08;;
78148;SDS011;67396;42.664;23.382;2023-11-21T01:59:34;49.33;;;23.90;;
78148;SDS011;67396;42.664;23.382;2023-11-21T02:02:02;32.90;;;15.73;;
78148;SDS011;67396;42.664;23.382;2023-11-21T02:04:34;32.78;;;16.58;;
78148;SDS011;67396;42.664;23.382;2023-11-21T02:07:01;24.85;;;13.10;;
78148;SDS011;67396;42.664;23.382;2023-11-21T02:09:30;24.02;;;13.80;;
78148;SDS011;67396;42.664;23.382;2023-11-21T02:11:56;25.75;;;13.55;;
78148;SDS011;67396;42.664;23.382;2023-11-21T02:14:23;23.73;;;12.60;;
78148;SDS011;67396;42.664;23.382;2023-11-21T02:16:51;34.42;;;15.98;;
78148;SDS011;67396;42.664;23.382;2023-11-21T02:19:18;29.80;;;16.33;;
78148;SDS011;67396;42.664;23.382;2023-11-21T02:21:47;30.85;;;17.17;;
78148;SDS011;67396;42.664;23.382;2023-11-21T02:24:15;32.55;;;16.60;;
78148;SDS011;67396;42.664;23.382;2023-11-21T02:26:42;26.63;;;16.13;;
78148;SDS011;67396;42.664;23.382;2023-11-21T02:29:08;28.10;;;15.00;;
78148;SDS011;67396;42.664;23.382;2023-11-21T02:31:36;28.02;;;14.57;;
78148;SDS011;67396;42.664;23.382;2023-11-21T02:34:10;27.55;;;14.13;;
78148;SDS011;67396;42.664;23.382;2023-11-21T02:36:38;35.28;;;15.15;;
78148;SDS011;67396;42.664;23.382;2023-11-21T02:39:04;29.88;;;15.75;;
78148;SDS011;67396;42.664;23.382;2023-11-21T02:41:29;30.40;;;15.48;;
78148;SDS011;67396;42.664;23.382;2023-11-21T02:43:55;37.28;;;17.30;;
78148;SDS011;67396;42.664;23.382;2023-11-21T02:46:20;28.30;;;16.67;;
78148;SDS011;67396;42.664;23.382;2023-11-21T02:48:46;38.90;;;19.33;;
78148;SDS011;67396;42.664;23.382;2023-11-21T02:51:11;33.95;;;18.92;;
78148;SDS011;67396;42.664;23.382;2023-11-21T02:53:37;38.50;;;17.60;;
78148;SDS011;67396;42.664;23.382;2023-11-21T02:56:04;29.98;;;17.52;;
78148;SDS011;67396;42.664;23.382;2023-11-21T02:58:29;41.42;;;20.40;;
78148;SDS011;67396;42.664;23.382;2023-11-21T03:00:55;39.55;;;19.58;;
78148;SDS011;67396;42.664;23.382;2023-11-21T03:03:21;40.78;;;20.77;;
78148;SDS011;67396;42.664;23.382;2023-11-21T03:05:49;42.83;;;19.52;;
78148;SDS011;67396;42.664;23.382;2023-11-21T03:08:14;35.65;;;18.00;;
78148;SDS011;67396;42.664;23.382;2023-11-21T03:10:39;42.70;;;19.35;;
78148;SDS011;67396;42.664;23.382;2023-11-21T03:13:05;29.83;;;17.08;;
78148;SDS011;67396;42.664;23.382;2023-11-21T03:15:31;39.80;;;17.48;;
78148;SDS011;67396;42.664;23.382;2023-11-21T03:17:57;33.85;;;17.13;;
78148;SDS011;67396;42.664;23.382;2023-11-21T03:20:23;39.97;;;18.73;;
78148;SDS011;67396;42.664;23.382;2023-11-21T03:22:49;39.05;;;18.83;;
78148;SDS011;67396;42.664;23.382;2023-11-21T03:25:14;38.08;;;20.05;;
78148;SDS011;67396;42.664;23.382;2023-11-21T03:27:42;32.42;;;18.00;;
78148;SDS011;67396;42.664;23.382;2023-11-21T03:30:09;37.45;;;19.13;;
78148;SDS011;67396;42.664;23.382;2023-11-21T03:32:36;37.33;;;20.25;;
78148;SDS011;67396;42.664;23.382;2023-11-21T03:35:01;38.63;;;18.65;;
78148;SDS011;67396;42.664;23.382;2023-11-21T03:37:28;39.05;;;20.08;;
78148;SDS011;67396;42.664;23.382;2023-11-21T03:39:54;36.10;;;18.95;;
78148;SDS011;67396;42.664;23.382;2023-11-21T03:42:21;37.17;;;18.65;;
78148;SDS011;67396;42.664;23.382;2023-11-21T03:44:46;33.40;;;16.58;;
78148;SDS011;67396;42.664;23.382;2023-11-21T03:47:12;37.50;;;16.88;;
78148;SDS011;67396;42.664;23.382;2023-11-21T03:49:37;28.88;;;15.15;;
78148;SDS011;67396;42.664;23.382;2023-11-21T03:52:03;31.83;;;16.55;;
78148;SDS011;67396;42.664;23.382;2023-11-21T03:54:29;24.98;;;12.45;;
78148;SDS011;67396;42.664;23.382;2023-11-21T03:56:54;18.98;;;11.50;;
78148;SDS011;67396;42.664;23.382;2023-11-21T03:59:20;21.75;;;11.63;;
78148;SDS011;67396;42.664;23.382;2023-11-21T04:01:45;23.05;;;11.23;;
78148;SDS011;67396;42.664;23.382;2023-11-21T04:04:11;19.00;;;11.77;;
78148;SDS011;67396;42.664;23.382;2023-11-21T04:06:36;22.15;;;12.18;;
78148;SDS011;67396;42.664;23.382;2023-11-21T04:09:03;25.58;;;12.68;;
78148;SDS011;67396;42.664;23.382;2023-11-21T04:11:29;26.45;;;12.45;;
78148;SDS011;67396;42.664;23.382;2023-11-21T04:13:55;22.50;;;11.85;;
78148;SDS011;67396;42.664;23.382;2023-11-21T04:16:21;24.10;;;12.95;;
78148;SDS011;67396;42.664;23.382;2023-11-21T04:18:47;29.20;;;12.25;;
78148;SDS011;67396;42.664;23.382;2023-11-21T04:21:13;29.98;;;13.40;;
78148;SDS011;67396;42.664;23.382;2023-11-21T04:23:39;25.95;;;12.40;;
78148;SDS011;67396;42.664;23.382;2023-11-21T04:26:05;24.35;;;11.57;;
78148;SDS011;67396;42.664;23.382;2023-11-21T04:28:31;20.75;;;11.80;;
78148;SDS011;67396;42.664;23.382;2023-11-21T04:30:57;22.38;;;10.32;;
78148;SDS011;67396;42.664;23.382;2023-11-21T04:33:23;24.17;;;10.98;;
78148;SDS011;67396;42.664;23.382;2023-11-21T04:35:50;22.63;;;9.88;;
78148;SDS011;67396;42.664;23.382;2023-11-21T04:38:16;21.30;;;10.73;;
78148;SDS011;67396;42.664;23.382;2023-11-21T04:40:42;17.77;;;8.45;;
78148;SDS011;67396;42.664;23.382;2023-11-21T04:43:08;21.90;;;10.13;;
78148;SDS011;67396;42.664;23.382;2023-11-21T04:45:34;23.00;;;9.13;;
78148;SDS011;67396;42.664;23.382;2023-11-21T04:47:59;22.80;;;10.30;;
78148;SDS011;67396;42.664;23.382;2023-11-21T04:50:25;22.88;;;10.48;;
78148;SDS011;67396;42.664;23.382;2023-11-21T04:52:53;18.60;;;9.43;;
78148;SDS011;67396;42.664;23.382;2023-11-21T04:55:19;13.50;;;7.68;;
78148;SDS011;67396;42.664;23.382;2023-11-21T04:57:44;20.73;;;8.98;;
78148;SDS011;67396;42.664;23.382;2023-11-21T05:00:10;17.80;;;8.68;;
78148;SDS011;67396;42.664;23.382;2023-11-21T05:02:37;17.02;;;8.13;;
78148;SDS011;67396;42.664;23.382;2023-11-21T05:05:03;16.48;;;8.55;;
78148;SDS011;67396;42.664;23.382;2023-11-21T05:07:31;12.50;;;6.60;;
78148;SDS011;67396;42.664;23.382;2023-11-21T05:09:57;12.98;;;6.40;;
78148;SDS011;67396;42.664;23.382;2023-11-21T05:12:23;17.75;;;7.88;;
78148;SDS011;67396;42.664;23.382;2023-11-21T05:14:49;17.15;;;9.68;;
78148;SDS011;67396;42.664;23.382;2023-11-21T05:17:15;20.55;;;9.15;;
78148;SDS011;67396;42.664;23.382;2023-11-21T05:19:41;17.30;;;9.55;;
78148;SDS011;67396;42.664;23.382;2023-11-21T05:22:08;16.48;;;9.07;;
78148;SDS011;67396;42.664;23.382;2023-11-21T05:24:33;14.40;;;7.97;;
78148;SDS011;67396;42.664;23.382;2023-11-21T05:27:00;16.48;;;8.73;;
78148;SDS011;67396;42.664;23.382;2023-11-21T05:29:25;16.70;;;9.45;;
78148;SDS011;67396;42.664;23.382;2023-11-21T05:31:51;22.67;;;10.52;;
78148;SDS011;67396;42.664;23.382;2023-11-21T05:34:18;19.23;;;10.18;;
78148;SDS011;67396;42.664;23.382;2023-11-21T05:36:43;17.30;;;9.98;;
78148;SDS011;67396;42.664;23.382;2023-11-21T05:39:10;15.68;;;9.80;;
78148;SDS011;67396;42.664;23.382;2023-11-21T05:41:36;17.25;;;10.27;;
78148;SDS011;67396;42.664;23.382;2023-11-21T05:44:02;18.73;;;10.02;;
78148;SDS011;67396;42.664;23.382;2023-11-21T05:46:27;18.77;;;11.25;;
78148;SDS011;67396;42.664;23.382;2023-11-21T05:48:53;21.05;;;10.68;;
78148;SDS011;67396;42.664;23.382;2023-11-21T05:51:18;20.95;;;10.77;;
78148;SDS011;67396;42.664;23.382;2023-11-21T05:53:44;18.50;;;11.63;;
78148;SDS011;67396;42.664;23.382;2023-11-21T05:56:09;25.15;;;11.90;;
78148;SDS011;67396;42.664;23.382;2023-11-21T05:58:35;19.92;;;12.40;;
78148;SDS011;67396;42.664;23.382;2023-11-21T06:01:00;26.00;;;15.45;;
78148;SDS011;67396;42.664;23.382;2023-11-21T06:03:26;24.67;;;13.13;;
78148;SDS011;67396;42.664;23.382;2023-11-21T06:05:51;36.35;;;17.40;;
78148;SDS011;67396;42.664;23.382;2023-11-21T06:08:17;33.78;;;17.17;;
78148;SDS011;67396;42.664;23.382;2023-11-21T06:10:43;31.45;;;18.38;;
78148;SDS011;67396;42.664;23.382;2023-11-21T06:13:09;28.67;;;16.83;;
78148;SDS011;67396;42.664;23.382;2023-11-21T06:15:35;27.13;;;14.80;;
78148;SDS011;67396;42.664;23.382;2023-11-21T06:18:01;28.35;;;15.50;;
78148;SDS011;67396;42.664;23.382;2023-11-21T06:20:27;35.10;;;15.15;;
78148;SDS011;67396;42.664;23.382;2023-11-21T06:22:53;30.63;;;13.43;;
78148;SDS011;67396;42.664;23.382;2023-11-21T06:25:18;25.10;;;13.05;;
78148;SDS011;67396;42.664;23.382;2023-11-21T06:27:45;20.42;;;10.75;;
78148;SDS011;67396;42.664;23.382;2023-11-21T06:30:13;24.02;;;11.10;;
78148;SDS011;67396;42.664;23.382;2023-11-21T06:32:40;16.95;;;9.95;;
78148;SDS011;67396;42.664;23.382;2023-11-21T06:35:06;19.42;;;9.52;;
78148;SDS011;67396;42.664;23.382;2023-11-21T06:37:33;17.48;;;8.10;;
78148;SDS011;67396;42.664;23.382;2023-11-21T06:40:00;13.10;;;7.88;;
78148;SDS011;67396;42.664;23.382;2023-11-21T06:42:26;15.48;;;7.68;;
78148;SDS011;67396;42.664;23.382;2023-11-21T06:44:51;18.17;;;7.15;;
78148;SDS011;67396;42.664;23.382;2023-11-21T06:47:18;14.57;;;6.60;;
78148;SDS011;67396;42.664;23.382;2023-11-21T06:49:45;10.57;;;5.85;;
78148;SDS011;67396;42.664;23.382;2023-11-21T06:52:14;9.27;;;5.82;;
78148;SDS011;67396;42.664;23.382;2023-11-21T06:54:40;10.48;;;6.07;;
78148;SDS011;67396;42.664;23.382;2023-11-21T06:57:06;13.63;;;7.35;;
78148;SDS011;67396;42.664;23.382;2023-11-21T06:59:32;16.90;;;6.55;;
78148;SDS011;67396;42.664;23.382;2023-11-21T07:01:58;15.75;;;7.60;;
78148;SDS011;67396;42.664;23.382;2023-11-21T07:04:24;13.07;;;7.63;;
78148;SDS011;67396;42.664;23.382;2023-11-21T07:06:51;15.65;;;8.20;;
78148;SDS011;67396;42.664;23.382;2023-11-21T07:09:18;14.07;;;8.23;;
78148;SDS011;67396;42.664;23.382;2023-11-21T07:11:47;17.20;;;9.18;;
78148;SDS011;67396;42.664;23.382;2023-11-21T07:14:14;15.75;;;8.98;;
78148;SDS011;67396;42.664;23.382;2023-11-21T07:16:40;16.50;;;9.43;;
78148;SDS011;67396;42.664;23.382;2023-11-21T07:19:08;15.90;;;9.73;;
78148;SDS011;67396;42.664;23.382;2023-11-21T07:21:37;16.75;;;8.63;;
78148;SDS011;67396;42.664;23.382;2023-11-21T07:24:05;16.25;;;8.85;;
78148;SDS011;67396;42.664;23.382;2023-11-21T07:26:31;16.67;;;9.45;;
78148;SDS011;67396;42.664;23.382;2023-11-21T07:29:02;21.38;;;8.95;;
78148;SDS011;67396;42.664;23.382;2023-11-21T07:31:28;17.02;;;9.07;;
78148;SDS011;67396;42.664;23.382;2023-11-21T07:33:54;15.40;;;8.85;;
78148;SDS011;67396;42.664;23.382;2023-11-21T07:36:23;17.63;;;8.95;;
78148;SDS011;67396;42.664;23.382;2023-11-21T07:38:49;30.38;;;10.65;;
78148;SDS011;67396;42.664;23.382;2023-11-21T07:41:15;22.77;;;11.00;;
78148;SDS011;67396;42.664;23.382;2023-11-21T07:43:42;23.85;;;10.70;;
78148;SDS011;67396;42.664;23.382;2023-11-21T07:46:08;19.98;;;11.05;;
78148;SDS011;67396;42.664;23.382;2023-11-21T07:48:34;18.77;;;11.15;;
78148;SDS011;67396;42.664;23.382;2023-11-21T07:51:01;18.77;;;10.20;;
78148;SDS011;67396;42.664;23.382;2023-11-21T07:53:30;30.48;;;13.25;;
78148;SDS011;67396;42.664;23.382;2023-11-21T07:55:56;20.65;;;11.43;;
78148;SDS011;67396;42.664;23.382;2023-11-21T07:58:23;27.90;;;12.32;;
78148;SDS011;67396;42.664;23.382;2023-11-21T08:00:49;17.00;;;9.75;;
78148;SDS011;67396;42.664;23.382;2023-11-21T08:03:15;29.23;;;12.02;;
78148;SDS011;67396;42.664;23.382;2023-11-21T08:05:41;21.25;;;12.68;;
78148;SDS011;67396;42.664;23.382;2023-11-21T08:08:06;28.90;;;14.35;;
78148;SDS011;67396;42.664;23.382;2023-11-21T08:10:32;34.92;;;16.33;;
78148;SDS011;67396;42.664;23.382;2023-11-21T08:12:58;25.80;;;14.57;;
78148;SDS011;67396;42.664;23.382;2023-11-21T08:15:24;26.33;;;16.40;;
78148;SDS011;67396;42.664;23.382;2023-11-21T08:17:50;35.67;;;16.67;;
78148;SDS011;67396;42.664;23.382;2023-11-21T08:20:15;30.92;;;17.77;;
78148;SDS011;67396;42.664;23.382;2023-11-21T08:22:41;32.22;;;16.80;;
78148;SDS011;67396;42.664;23.382;2023-11-21T08:25:07;30.80;;;18.52;;
78148;SDS011;67396;42.664;23.382;2023-11-21T08:27:33;28.02;;;16.02;;
78148;SDS011;67396;42.664;23.382;2023-11-21T08:30:00;34.13;;;17.38;;
78148;SDS011;67396;42.664;23.382;2023-11-21T08:32:28;35.63;;;15.77;;
78148;SDS011;67396;42.664;23.382;2023-11-21T08:34:57;31.05;;;18.08;;
78148;SDS011;67396;42.664;23.382;2023-11-21T08:37:22;34.28;;;16.05;;
78148;SDS011;67396;42.664;23.382;2023-11-21T08:39:49;26.60;;;15.52;;
78148;SDS011;67396;42.664;23.382;2023-11-21T08:42:14;28.98;;;16.02;;
78148;SDS011;67396;42.664;23.382;2023-11-21T08:44:40;30.70;;;17.48;;
78148;SDS011;67396;42.664;23.382;2023-11-21T08:47:06;30.13;;;15.20;;
78148;SDS011;67396;42.664;23.382;2023-11-21T08:49:32;35.72;;;15.60;;
78148;SDS011;67396;42.664;23.382;2023-11-21T08:51:57;29.88;;;16.23;;
78148;SDS011;67396;42.664;23.382;2023-11-21T08:54:26;34.67;;;16.27;;
78148;SDS011;67396;42.664;23.382;2023-11-21T08:56:52;29.27;;;15.27;;
78148;SDS011;67396;42.664;23.382;2023-11-21T08:59:19;26.13;;;14.77;;
78148;SDS011;67396;42.664;23.382;2023-11-21T09:01:45;26.48;;;14.10;;
78148;SDS011;67396;42.664;23.382;2023-11-21T09:04:11;24.38;;;15.25;;
78148;SDS011;67396;42.664;23.382;2023-11-21T09:06:37;27.80;;;16.20;;
78148;SDS011;67396;42.664;23.382;2023-11-21T09:09:03;30.25;;;14.05;;
78148;SDS011;67396;42.664;23.382;2023-11-21T09:11:30;27.10;;;14.55;;
78148;SDS011;67396;42.664;23.382;2023-11-21T09:13:58;26.60;;;14.50;;
78148;SDS011;67396;42.664;23.382;2023-11-21T09:16:24;19.77;;;12.70;;
78148;SDS011;67396;42.664;23.382;2023-11-21T09:18:50;24.52;;;13.18;;
78148;SDS011;67396;42.664;23.382;2023-11-21T09:21:17;22.52;;;12.52;;
78148;SDS011;67396;42.664;23.382;2023-11-21T09:23:45;31.35;;;13.85;;
78148;SDS011;67396;42.664;23.382;2023-11-21T09:26:19;24.38;;;13.70;;
78148;SDS011;67396;42.664;23.382;2023-11-21T09:28:44;25.35;;;12.65;;
78148;SDS011;67396;42.664;23.382;2023-11-21T09:31:13;19.50;;;13.07;;
78148;SDS011;67396;42.664;23.382;2023-11-21T09:33:41;28.77;;;13.90;;
78148;SDS011;67396;42.664;23.382;2023-11-21T09:36:12;29.23;;;12.98;;
78148;SDS011;67396;42.664;23.382;2023-11-21T09:38:41;22.30;;;14.35;;
78148;SDS011;67396;42.664;23.382;2023-11-21T09:41:11;29.90;;;13.75;;
78148;SDS011;67396;42.664;23.382;2023-11-21T09:43:45;32.67;;;14.80;;
78148;SDS011;67396;42.664;23.382;2023-11-21T09:46:12;33.67;;;14.80;;
78148;SDS011;67396;42.664;23.382;2023-11-21T09:48:44;26.98;;;14.18;;
78148;SDS011;67396;42.664;23.382;2023-11-21T09:51:15;33.25;;;14.65;;
78148;SDS011;67396;42.664;23.382;2023-11-21T09:53:45;30.08;;;15.93;;
78148;SDS011;67396;42.664;23.382;2023-11-21T09:56:15;27.73;;;16.00;;
78148;SDS011;67396;42.664;23.382;2023-11-21T09:58:44;28.83;;;16.50;;
78148;SDS011;67396;42.664;23.382;2023-11-21T10:01:10;28.30;;;16.98;;
78148;SDS011;67396;42.664;23.382;2023-11-21T10:03:39;27.05;;;15.20;;
78148;SDS011;67396;42.664;23.382;2023-11-21T10:06:05;30.38;;;15.65;;
78148;SDS011;67396;42.664;23.382;2023-11-21T10:08:32;31.58;;;15.05;;
78148;SDS011;67396;42.664;23.382;2023-11-21T10:10:58;26.95;;;15.77;;
78148;SDS011;67396;42.664;23.382;2023-11-21T10:13:24;25.48;;;13.77;;
78148;SDS011;67396;42.664;23.382;2023-11-21T10:15:55;26.90;;;12.82;;
78148;SDS011;67396;42.664;23.382;2023-11-21T10:18:22;22.42;;;13.55;;
78148;SDS011;67396;42.664;23.382;2023-11-21T10:20:50;20.45;;;13.00;;
78148;SDS011;67396;42.664;23.382;2023-11-21T10:23:19;35.20;;;12.85;;
78148;SDS011;67396;42.664;23.382;2023-11-21T10:25:46;30.58;;;13.98;;
78148;SDS011;67396;42.664;23.382;2023-11-21T10:28:11;28.27;;;14.05;;
78148;SDS011;67396;42.664;23.382;2023-11-21T10:30:37;32.35;;;15.35;;
78148;SDS011;67396;42.664;23.382;2023-11-21T10:33:04;28.98;;;15.85;;
78148;SDS011;67396;42.664;23.382;2023-11-21T10:35:48;27.70;;;15.35;;
78148;SDS011;67396;42.664;23.382;2023-11-21T10:38:19;26.52;;;14.15;;
78148;SDS011;67396;42.664;23.382;2023-11-21T10:40:50;27.73;;;14.95;;
78148;SDS011;67396;42.664;23.382;2023-11-21T10:43:16;28.17;;;14.20;;
78148;SDS011;67396;42.664;23.382;2023-11-21T10:45:41;23.05;;;11.65;;
78148;SDS011;67396;42.664;23.382;2023-11-21T10:48:09;20.17;;;12.57;;
78148;SDS011;67396;42.664;23.382;2023-11-21T10:50:42;19.83;;;11.18;;
78148;SDS011;67396;42.664;23.382;2023-11-21T10:53:09;22.08;;;11.60;;
78148;SDS011;67396;42.664;23.382;2023-11-21T10:55:36;25.40;;;12.13;;
78148;SDS011;67396;42.664;23.382;2023-11-21T10:58:02;24.05;;;13.30;;
78148;SDS011;67396;42.664;23.382;2023-11-21T11:00:31;26.92;;;13.13;;
78148;SDS011;67396;42.664;23.382;2023-11-21T11:02:58;32.08;;;13.63;;
78148;SDS011;67396;42.664;23.382;2023-11-21T11:05:25;27.17;;;13.20;;
78148;SDS011;67396;42.664;23.382;2023-11-21T11:08:02;23.02;;;12.73;;
78148;SDS011;67396;42.664;23.382;2023-11-21T11:10:30;26.20;;;13.18;;
78148;SDS011;67396;42.664;23.382;2023-11-21T11:12:56;18.90;;;11.65;;
78148;SDS011;67396;42.664;23.382;2023-11-21T11:15:23;20.85;;;11.55;;
78148;SDS011;67396;42.664;23.382;2023-11-21T11:17:49;23.73;;;11.93;;
78148;SDS011;67396;42.664;23.382;2023-11-21T11:20:15;22.70;;;13.10;;
78148;SDS011;67396;42.664;23.382;2023-11-21T11:22:44;23.58;;;13.95;;
78148;SDS011;67396;42.664;23.382;2023-11-21T11:28:10;34.55;;;13.05;;
78148;SDS011;67396;42.664;23.382;2023-11-21T11:38:45;22.23;;;13.10;;
78148;SDS011;67396;42.664;23.382;2023-11-21T11:41:11;36.05;;;13.95;;
78148;SDS011;67396;42.664;23.382;2023-11-21T11:43:37;27.42;;;14.07;;
78148;SDS011;67396;42.664;23.382;2023-11-21T11:46:09;28.75;;;13.55;;
78148;SDS011;67396;42.664;23.382;2023-11-21T11:48:40;25.30;;;14.00;;
78148;SDS011;67396;42.664;23.382;2023-11-21T11:51:09;24.65;;;15.05;;
78148;SDS011;67396;42.664;23.382;2023-11-21T11:53:39;26.80;;;14.77;;
78148;SDS011;67396;42.664;23.382;2023-11-21T11:56:26;24.55;;;14.85;;
78148;SDS011;67396;42.664;23.382;2023-11-21T11:58:57;31.83;;;15.65;;
78148;SDS011;67396;42.664;23.382;2023-11-21T12:01:26;25.48;;;16.13;;
78148;SDS011;67396;42.664;23.382;2023-11-21T12:04:26;32.08;;;17.10;;
78148;SDS011;67396;42.664;23.382;2023-11-21T12:06:50;33.42;;;18.52;;
78148;SDS011;67396;42.664;23.382;2023-11-21T12:09:18;38.17;;;21.70;;
78148;SDS011;67396;42.664;23.382;2023-11-21T12:11:45;47.72;;;25.67;;
78148;SDS011;67396;42.664;23.382;2023-11-21T12:14:12;42.60;;;24.77;;
78148;SDS011;67396;42.664;23.382;2023-11-21T12:16:39;37.67;;;23.63;;
78148;SDS011;67396;42.664;23.382;2023-11-21T12:19:04;45.58;;;24.25;;
78148;SDS011;67396;42.664;23.382;2023-11-21T12:21:30;40.05;;;21.67;;
78148;SDS011;67396;42.664;23.382;2023-11-21T12:23:57;35.53;;;20.27;;
78148;SDS011;67396;42.664;23.382;2023-11-21T12:26:23;35.63;;;18.92;;
78148;SDS011;67396;42.664;23.382;2023-11-21T12:28:55;31.58;;;19.98;;
78148;SDS011;67396;42.664;23.382;2023-11-21T12:31:21;43.92;;;21.63;;
78148;SDS011;67396;42.664;23.382;2023-11-21T12:33:47;42.45;;;22.67;;
78148;SDS011;67396;42.664;23.382;2023-11-21T12:36:13;42.03;;;22.63;;
78148;SDS011;67396;42.664;23.382;2023-11-21T12:38:39;35.22;;;22.02;;
78148;SDS011;67396;42.664;23.382;2023-11-21T12:41:05;40.47;;;22.92;;
78148;SDS011;67396;42.664;23.382;2023-11-21T12:43:35;40.97;;;24.10;;
78148;SDS011;67396;42.664;23.382;2023-11-21T12:46:07;41.60;;;24.83;;
78148;SDS011;67396;42.664;23.382;2023-11-21T12:48:39;49.63;;;24.38;;
78148;SDS011;67396;42.664;23.382;2023-11-21T12:51:09;40.40;;;24.27;;
78148;SDS011;67396;42.664;23.382;2023-11-21T12:53:41;38.60;;;22.15;;
78148;SDS011;67396;42.664;23.382;2023-11-21T12:56:12;46.83;;;24.08;;
78148;SDS011;67396;42.664;23.382;2023-11-21T12:58:38;44.60;;;21.73;;
78148;SDS011;67396;42.664;23.382;2023-11-21T13:01:06;35.88;;;22.27;;
78148;SDS011;67396;42.664;23.382;2023-11-21T13:03:39;38.17;;;21.38;;
78148;SDS011;67396;42.664;23.382;2023-11-21T13:06:06;42.65;;;22.75;;
78148;SDS011;67396;42.664;23.382;2023-11-21T13:08:32;45.85;;;24.13;;
78148;SDS011;67396;42.664;23.382;2023-11-21T13:10:58;42.35;;;22.08;;
78148;SDS011;67396;42.664;23.382;2023-11-21T13:13:25;40.83;;;23.15;;
78148;SDS011;67396;42.664;23.382;2023-11-21T13:15:59;41.10;;;21.92;;
78148;SDS011;67396;42.664;23.382;2023-11-21T13:18:26;40.92;;;23.65;;
78148;SDS011;67396;42.664;23.382;2023-11-21T13:20:53;44.30;;;22.33;;
78148;SDS011;67396;42.664;23.382;2023-11-21T13:23:22;41.33;;;21.80;;
78148;SDS011;67396;42.664;23.382;2023-11-21T13:25:48;47.45;;;23.20;;
78148;SDS011;67396;42.664;23.382;2023-11-21T13:28:15;39.75;;;21.30;;
78148;SDS011;67396;42.664;23.382;2023-11-21T13:30:40;43.30;;;22.67;;
78148;SDS011;67396;42.664;23.382;2023-11-21T13:33:07;49.35;;;23.88;;
78148;SDS011;67396;42.664;23.382;2023-11-21T13:35:34;43.00;;;22.52;;
78148;SDS011;67396;42.664;23.382;2023-11-21T13:38:09;44.70;;;23.13;;
78148;SDS011;67396;42.664;23.382;2023-11-21T13:40:37;42.42;;;23.90;;
78148;SDS011;67396;42.664;23.382;2023-11-21T13:43:15;44.78;;;23.67;;
78148;SDS011;67396;42.664;23.382;2023-11-21T13:45:43;43.67;;;22.73;;
78148;SDS011;67396;42.664;23.382;2023-11-21T13:48:10;39.45;;;23.25;;
78148;SDS011;67396;42.664;23.382;2023-11-21T13:50:42;41.60;;;22.48;;
78148;SDS011;67396;42.664;23.382;2023-11-21T13:53:34;45.75;;;21.98;;
78148;SDS011;67396;42.664;23.382;2023-11-21T13:56:02;37.17;;;23.00;;
78148;SDS011;67396;42.664;23.382;2023-11-21T13:58:28;42.92;;;24.23;;
78148;SDS011;67396;42.664;23.382;2023-11-21T14:01:12;36.88;;;21.73;;
78148;SDS011;67396;42.664;23.382;2023-11-21T14:04:02;40.15;;;23.33;;
78148;SDS011;67396;42.664;23.382;2023-11-21T14:06:37;42.45;;;22.80;;
78148;SDS011;67396;42.664;23.382;2023-11-21T14:11:47;46.22;;;21.20;;
78148;SDS011;67396;42.664;23.382;2023-11-21T14:14:14;42.55;;;22.13;;
78148;SDS011;67396;42.664;23.382;2023-11-21T14:16:39;39.90;;;22.25;;
78148;SDS011;67396;42.664;23.382;2023-11-21T14:19:05;40.72;;;22.85;;
78148;SDS011;67396;42.664;23.382;2023-11-21T14:21:40;36.70;;;21.90;;
78148;SDS011;67396;42.664;23.382;2023-11-21T14:24:08;46.47;;;23.50;;